KLM755 SEQM-SEGU
Flight info
| Callsign | KLM755 |
|---|---|
| Flight time | 0h 49m |
| Altitude | 26000 |
| Route | TEMOX2C TEMOX DCT MUBAS DCT UMDER DCT ARSOR DCT IRODA |
| Aircraft | B722/M-SDFGHRWY/C |
Departure
| Time | 2026-04-22 06:26 |
|---|---|
| Airport | Mariscal Sucre International Airport (SEQM) |
Arrival
| Time | 2026-04-22 07:15 |
|---|---|
| Airport | José Joaquín de Olmedo International Airport (SEGU) |
| Time | Latitude | Longitude | Altitude | Speed | Heading |
|---|---|---|---|---|---|
| 2026-04-22 05:57 | -0.12541 | -78.35915 | 7846 ft | 0 kts | 266° |
| 2026-04-22 06:09 | -0.12541 | -78.35914 | 7846 ft | 2 kts | 266° |
| 2026-04-22 06:10 | -0.12539 | -78.35889 | 7846 ft | 4 kts | 260° |
| 2026-04-22 06:10 | -0.12532 | -78.35863 | 7846 ft | 4 kts | 248° |
| 2026-04-22 06:10 | -0.12518 | -78.35842 | 7837 ft | 4 kts | 219° |
| 2026-04-22 06:10 | -0.12501 | -78.35837 | 7846 ft | 0 kts | 178° |
| 2026-04-22 06:16 | -0.12502 | -78.35837 | 7846 ft | 0 kts | 178° |
| 2026-04-22 06:16 | -0.12524 | -78.35836 | 7837 ft | 6 kts | 178° |
| 2026-04-22 06:16 | -0.12576 | -78.35834 | 7846 ft | 8 kts | 177° |
| 2026-04-22 06:16 | -0.12633 | -78.35832 | 7844 ft | 8 kts | 173° |
| 2026-04-22 06:17 | -0.12682 | -78.35812 | 7845 ft | 7 kts | 124° |
| 2026-04-22 06:17 | -0.12693 | -78.35776 | 7848 ft | 4 kts | 96° |
| 2026-04-22 06:17 | -0.12694 | -78.35751 | 7849 ft | 3 kts | 90° |
| 2026-04-22 06:17 | -0.12694 | -78.35724 | 7850 ft | 4 kts | 88° |
| 2026-04-22 06:18 | -0.12694 | -78.35712 | 7851 ft | 0 kts | 88° |
| 2026-04-22 06:18 | -0.12693 | -78.35703 | 7852 ft | 4 kts | 87° |
| 2026-04-22 06:18 | -0.12692 | -78.35682 | 7855 ft | 2 kts | 86° |
| 2026-04-22 06:18 | -0.12691 | -78.35667 | 7857 ft | 5 kts | 85° |
| 2026-04-22 06:19 | -0.12701 | -78.35620 | 7863 ft | 10 kts | 125° |
| 2026-04-22 06:19 | -0.12789 | -78.35595 | 7869 ft | 15 kts | 179° |
| 2026-04-22 06:19 | -0.12883 | -78.35593 | 7872 ft | 12 kts | 179° |
| 2026-04-22 06:19 | -0.12962 | -78.35591 | 7874 ft | 10 kts | 178° |
| 2026-04-22 06:20 | -0.13024 | -78.35588 | 7877 ft | 8 kts | 178° |
| 2026-04-22 06:20 | -0.13078 | -78.35586 | 7880 ft | 8 kts | 178° |
| 2026-04-22 06:20 | -0.13144 | -78.35583 | 7884 ft | 11 kts | 178° |
| 2026-04-22 06:20 | -0.13233 | -78.35579 | 7887 ft | 15 kts | 177° |
| 2026-04-22 06:21 | -0.13352 | -78.35573 | 7888 ft | 20 kts | 178° |
| 2026-04-22 06:21 | -0.13490 | -78.35569 | 7891 ft | 19 kts | 177° |
| 2026-04-22 06:21 | -0.13612 | -78.35563 | 7896 ft | 16 kts | 177° |
| 2026-04-22 06:21 | -0.13710 | -78.35559 | 7899 ft | 13 kts | 177° |
| 2026-04-22 06:22 | -0.13797 | -78.35556 | 7900 ft | 12 kts | 178° |
| 2026-04-22 06:22 | -0.13886 | -78.35553 | 7905 ft | 13 kts | 177° |
| 2026-04-22 06:22 | -0.13976 | -78.35548 | 7914 ft | 13 kts | 176° |
| 2026-04-22 06:22 | -0.14057 | -78.35543 | 7917 ft | 10 kts | 177° |
| 2026-04-22 06:23 | -0.14120 | -78.35542 | 7920 ft | 8 kts | 178° |
| 2026-04-22 06:23 | -0.14168 | -78.35539 | 7920 ft | 6 kts | 176° |
| 2026-04-22 06:23 | -0.14206 | -78.35535 | 7923 ft | 5 kts | 162° |
| 2026-04-22 06:23 | -0.14238 | -78.35514 | 7925 ft | 6 kts | 130° |
| 2026-04-22 06:24 | -0.14246 | -78.35395 | 7921 ft | 13 kts | 57° |
| 2026-04-22 06:24 | -0.14126 | -78.35370 | 7914 ft | 30 kts | 358° |
| 2026-04-22 06:24 | -0.13739 | -78.35384 | 7897 ft | 82 kts | 358° |
| 2026-04-22 06:25 | -0.13007 | -78.35412 | 7880 ft | 127 kts | 358° |
| 2026-04-22 06:25 | -0.12002 | -78.35457 | 7833 ft | 163 kts | 358° |
| 2026-04-22 06:25 | -0.10833 | -78.35493 | 8120 ft | 165 kts | 358° |
| 2026-04-22 06:25 | -0.09663 | -78.35541 | 8380 ft | 180 kts | 357° |
| 2026-04-22 06:26 | -0.08369 | -78.35618 | 8604 ft | 195 kts | 358° |
| 2026-04-22 06:26 | -0.06941 | -78.35672 | 8770 ft | 214 kts | 358° |
| 2026-04-22 06:26 | -0.05372 | -78.35732 | 8968 ft | 240 kts | 359° |
| 2026-04-22 06:26 | -0.03598 | -78.35806 | 9481 ft | 257 kts | 358° |
| 2026-04-22 06:27 | -0.01847 | -78.35883 | 10731 ft | 250 kts | 358° |
| 2026-04-22 06:27 | -0.00080 | -78.35966 | 11525 ft | 259 kts | 357° |
| 2026-04-22 06:27 | 0.01702 | -78.36392 | 12180 ft | 272 kts | 332° |
| 2026-04-22 06:27 | 0.03294 | -78.37481 | 12842 ft | 284 kts | 320° |
| 2026-04-22 06:28 | 0.04750 | -78.38846 | 13493 ft | 298 kts | 316° |
| 2026-04-22 06:28 | 0.06292 | -78.40302 | 14147 ft | 311 kts | 317° |
| 2026-04-22 06:28 | 0.07924 | -78.41781 | 14790 ft | 323 kts | 318° |
| 2026-04-22 06:28 | 0.09626 | -78.43311 | 15422 ft | 335 kts | 317° |
| 2026-04-22 06:29 | 0.11394 | -78.44899 | 16050 ft | 346 kts | 317° |
| 2026-04-22 06:29 | 0.13213 | -78.46538 | 16676 ft | 357 kts | 317° |
| 2026-04-22 06:29 | 0.15074 | -78.48240 | 17288 ft | 367 kts | 314° |
| 2026-04-22 06:29 | 0.16456 | -78.50384 | 17880 ft | 371 kts | 289° |
| 2026-04-22 06:30 | 0.16793 | -78.52929 | 18494 ft | 371 kts | 264° |
| 2026-04-22 06:30 | 0.16005 | -78.55373 | 19107 ft | 374 kts | 238° |
| 2026-04-22 06:30 | 0.14241 | -78.57262 | 19731 ft | 375 kts | 213° |
| 2026-04-22 06:30 | 0.11837 | -78.58249 | 20367 ft | 377 kts | 192° |
| 2026-04-22 06:31 | 0.09231 | -78.58571 | 21009 ft | 378 kts | 184° |
| 2026-04-22 06:31 | 0.06635 | -78.58741 | 21621 ft | 379 kts | 185° |
| 2026-04-22 06:31 | 0.04013 | -78.59056 | 22225 ft | 380 kts | 189° |
| 2026-04-22 06:31 | 0.01412 | -78.59546 | 22821 ft | 380 kts | 192° |
| 2026-04-22 06:32 | -0.01152 | -78.60192 | 23413 ft | 380 kts | 195° |
| 2026-04-22 06:32 | -0.03678 | -78.60961 | 24002 ft | 379 kts | 198° |
| 2026-04-22 06:32 | -0.06179 | -78.61836 | 24587 ft | 379 kts | 200° |
| 2026-04-22 06:32 | -0.08633 | -78.62783 | 25173 ft | 377 kts | 202° |
| 2026-04-22 06:33 | -0.10885 | -78.64108 | 25747 ft | 375 kts | 217° |
| 2026-04-22 06:33 | -0.12864 | -78.65802 | 25959 ft | 385 kts | 223° |
| 2026-04-22 06:33 | -0.14784 | -78.67738 | 25983 ft | 399 kts | 225° |
| 2026-04-22 06:33 | -0.16751 | -78.69757 | 25986 ft | 412 kts | 225° |
| 2026-04-22 06:34 | -0.18769 | -78.71831 | 25985 ft | 419 kts | 225° |
| 2026-04-22 06:34 | -0.20820 | -78.73939 | 25984 ft | 425 kts | 225° |
| 2026-04-22 06:34 | -0.22894 | -78.76070 | 25987 ft | 430 kts | 225° |
| 2026-04-22 06:34 | -0.24997 | -78.78231 | 25983 ft | 435 kts | 225° |
| 2026-04-22 06:35 | -0.27120 | -78.80411 | 25991 ft | 440 kts | 225° |
| 2026-04-22 06:35 | -0.29263 | -78.82613 | 25993 ft | 444 kts | 225° |
| 2026-04-22 06:35 | -0.31428 | -78.84837 | 25992 ft | 448 kts | 225° |
| 2026-04-22 06:35 | -0.33613 | -78.87083 | 25988 ft | 452 kts | 225° |
| 2026-04-22 06:36 | -0.35784 | -78.89314 | 25988 ft | 455 kts | 225° |
| 2026-04-22 06:36 | -0.37999 | -78.91591 | 25990 ft | 458 kts | 225° |
| 2026-04-22 06:36 | -0.40225 | -78.93880 | 25991 ft | 460 kts | 225° |
| 2026-04-22 06:36 | -0.42466 | -78.96186 | 25991 ft | 463 kts | 225° |
| 2026-04-22 06:37 | -0.44720 | -78.98505 | 25992 ft | 465 kts | 225° |
| 2026-04-22 06:37 | -0.46975 | -79.00824 | 25991 ft | 467 kts | 225° |
| 2026-04-22 06:37 | -0.49247 | -79.03158 | 25988 ft | 469 kts | 225° |
| 2026-04-22 06:37 | -0.51523 | -79.05495 | 25990 ft | 470 kts | 225° |
| 2026-04-22 06:38 | -0.53783 | -79.07815 | 25992 ft | 472 kts | 225° |
| 2026-04-22 06:38 | -0.56072 | -79.10227 | 25988 ft | 473 kts | 226° |
| 2026-04-22 06:38 | -0.58386 | -79.12521 | 25979 ft | 473 kts | 219° |
| 2026-04-22 06:38 | -0.61074 | -79.14406 | 25983 ft | 473 kts | 211° |
| 2026-04-22 06:39 | -0.63980 | -79.15946 | 25981 ft | 473 kts | 203° |
| 2026-04-22 06:39 | -0.67024 | -79.17172 | 25979 ft | 472 kts | 202° |
| 2026-04-22 06:39 | -0.70061 | -79.18450 | 25980 ft | 474 kts | 202° |
| 2026-04-22 06:39 | -0.73086 | -79.19768 | 25981 ft | 475 kts | 203° |
| 2026-04-22 06:40 | -0.76103 | -79.21122 | 25980 ft | 476 kts | 204° |
| 2026-04-22 06:40 | -0.79093 | -79.22554 | 25981 ft | 476 kts | 206° |
| 2026-04-22 06:40 | -0.82102 | -79.23942 | 25969 ft | 476 kts | 203° |
| 2026-04-22 06:40 | -0.85127 | -79.25327 | 25970 ft | 477 kts | 205° |
| 2026-04-22 06:41 | -0.88101 | -79.26801 | 25970 ft | 477 kts | 205° |
| 2026-04-22 06:41 | -0.91095 | -79.28123 | 25961 ft | 477 kts | 204° |
| 2026-04-22 06:41 | -0.94090 | -79.29535 | 25949 ft | 477 kts | 207° |
| 2026-04-22 06:41 | -0.97063 | -79.31007 | 25939 ft | 476 kts | 204° |
| 2026-04-22 06:42 | -1.00104 | -79.32322 | 25888 ft | 477 kts | 204° |
| 2026-04-22 06:42 | -1.03101 | -79.33757 | 25854 ft | 478 kts | 206° |
| 2026-04-22 06:42 | -1.06104 | -79.35194 | 25836 ft | 478 kts | 203° |
| 2026-04-22 06:42 | -1.09142 | -79.36551 | 25837 ft | 478 kts | 204° |
| 2026-04-22 06:43 | -1.12143 | -79.38006 | 25806 ft | 479 kts | 206° |
| 2026-04-22 06:43 | -1.15167 | -79.39399 | 25807 ft | 478 kts | 203° |
| 2026-04-22 06:43 | -1.18199 | -79.40785 | 25797 ft | 479 kts | 205° |
| 2026-04-22 06:43 | -1.21146 | -79.42255 | 25785 ft | 479 kts | 205° |
| 2026-04-22 06:44 | -1.24187 | -79.43611 | 25766 ft | 478 kts | 204° |
| 2026-04-22 06:44 | -1.27215 | -79.45003 | 25758 ft | 477 kts | 205° |
| 2026-04-22 06:44 | -1.30194 | -79.46462 | 25736 ft | 476 kts | 205° |
| 2026-04-22 06:44 | -1.33218 | -79.47816 | 25731 ft | 476 kts | 204° |
| 2026-04-22 06:45 | -1.36221 | -79.49235 | 25719 ft | 477 kts | 206° |
| 2026-04-22 06:45 | -1.39203 | -79.50673 | 25710 ft | 476 kts | 203° |
| 2026-04-22 06:45 | -1.42234 | -79.52023 | 25692 ft | 477 kts | 204° |
| 2026-04-22 06:45 | -1.45223 | -79.53466 | 25683 ft | 477 kts | 206° |
| 2026-04-22 06:46 | -1.48236 | -79.54869 | 25665 ft | 478 kts | 204° |
| 2026-04-22 06:46 | -1.51259 | -79.56244 | 25666 ft | 478 kts | 204° |
| 2026-04-22 06:46 | -1.54260 | -79.57681 | 25646 ft | 478 kts | 206° |
| 2026-04-22 06:46 | -1.57233 | -79.59092 | 25632 ft | 477 kts | 203° |
| 2026-04-22 06:47 | -1.60257 | -79.60464 | 25630 ft | 478 kts | 204° |
| 2026-04-22 06:47 | -1.63278 | -79.61874 | 25619 ft | 478 kts | 205° |
| 2026-04-22 06:47 | -1.66267 | -79.63328 | 25610 ft | 478 kts | 204° |
| 2026-04-22 06:47 | -1.69299 | -79.64694 | 25602 ft | 478 kts | 204° |
| 2026-04-22 06:48 | -1.72314 | -79.66102 | 25591 ft | 479 kts | 205° |
| 2026-04-22 06:48 | -1.75306 | -79.67562 | 25592 ft | 478 kts | 204° |
| 2026-04-22 06:48 | -1.78338 | -79.68927 | 25584 ft | 478 kts | 204° |
| 2026-04-22 06:48 | -1.81369 | -79.70327 | 25574 ft | 478 kts | 204° |
| 2026-04-22 06:49 | -1.84362 | -79.71777 | 25566 ft | 478 kts | 206° |
| 2026-04-22 06:49 | -1.87382 | -79.73178 | 25562 ft | 477 kts | 203° |
| 2026-04-22 06:49 | -1.90402 | -79.74554 | 25550 ft | 478 kts | 204° |
| 2026-04-22 06:49 | -1.93277 | -79.76126 | 25544 ft | 478 kts | 212° |
| 2026-04-22 06:50 | -1.95802 | -79.78279 | 25531 ft | 479 kts | 228° |
| 2026-04-22 06:50 | -1.97913 | -79.80855 | 25553 ft | 478 kts | 226° |
| 2026-04-22 06:50 | -2.00499 | -79.82904 | 25533 ft | 476 kts | 207° |
| 2026-04-22 06:50 | -2.03601 | -79.83982 | 25537 ft | 473 kts | 188° |
| 2026-04-22 06:51 | -2.06872 | -79.83979 | 25551 ft | 471 kts | 169° |
| 2026-04-22 06:51 | -2.10001 | -79.83010 | 25557 ft | 470 kts | 157° |
| 2026-04-22 06:51 | -2.12949 | -79.81577 | 25546 ft | 471 kts | 151° |
| 2026-04-22 06:51 | -2.15777 | -79.79920 | 25534 ft | 471 kts | 149° |
| 2026-04-22 06:52 | -2.18581 | -79.78228 | 25559 ft | 471 kts | 149° |
| 2026-04-22 06:52 | -2.21188 | -79.76254 | 25422 ft | 473 kts | 133° |
| 2026-04-22 06:52 | -2.23022 | -79.73526 | 25315 ft | 476 kts | 114° |
| 2026-04-22 06:52 | -2.23840 | -79.70363 | 25139 ft | 461 kts | 95° |
| 2026-04-22 06:53 | -2.23542 | -79.67254 | 24873 ft | 442 kts | 74° |
| 2026-04-22 06:53 | -2.22213 | -79.64560 | 24523 ft | 428 kts | 53° |
| 2026-04-22 06:53 | -2.20114 | -79.62522 | 24156 ft | 416 kts | 38° |
| 2026-04-22 06:53 | -2.17777 | -79.60949 | 23765 ft | 405 kts | 31° |
| 2026-04-22 06:54 | -2.15351 | -79.59576 | 23359 ft | 395 kts | 30° |
| 2026-04-22 06:54 | -2.12976 | -79.58255 | 22947 ft | 387 kts | 29° |
| 2026-04-22 06:54 | -2.10649 | -79.56956 | 22532 ft | 380 kts | 29° |
| 2026-04-22 06:54 | -2.08361 | -79.55678 | 22118 ft | 373 kts | 29° |
| 2026-04-22 06:55 | -2.06110 | -79.54422 | 21709 ft | 368 kts | 29° |
| 2026-04-22 06:55 | -2.03890 | -79.53184 | 21299 ft | 362 kts | 29° |
| 2026-04-22 06:55 | -2.01702 | -79.51958 | 20856 ft | 358 kts | 29° |
| 2026-04-22 06:55 | -1.99541 | -79.50737 | 20401 ft | 355 kts | 29° |
| 2026-04-22 06:56 | -1.97406 | -79.49520 | 19946 ft | 351 kts | 29° |
| 2026-04-22 06:56 | -1.95299 | -79.48308 | 19493 ft | 348 kts | 29° |
| 2026-04-22 06:56 | -1.93211 | -79.47100 | 19037 ft | 345 kts | 29° |
| 2026-04-22 06:56 | -1.91148 | -79.45899 | 18588 ft | 342 kts | 29° |
| 2026-04-22 06:57 | -1.89100 | -79.44706 | 18142 ft | 340 kts | 28° |
| 2026-04-22 06:57 | -1.87067 | -79.43511 | 17688 ft | 338 kts | 29° |
| 2026-04-22 06:57 | -1.85047 | -79.42321 | 17237 ft | 336 kts | 29° |
| 2026-04-22 06:57 | -1.83037 | -79.41138 | 16791 ft | 334 kts | 29° |
| 2026-04-22 06:58 | -1.81064 | -79.39976 | 16349 ft | 332 kts | 29° |
| 2026-04-22 06:58 | -1.79081 | -79.38806 | 15893 ft | 330 kts | 29° |
| 2026-04-22 06:58 | -1.77111 | -79.37643 | 15471 ft | 328 kts | 29° |
| 2026-04-22 06:58 | -1.75171 | -79.36497 | 15025 ft | 326 kts | 29° |
| 2026-04-22 06:59 | -1.73199 | -79.35336 | 14566 ft | 325 kts | 29° |
| 2026-04-22 06:59 | -1.71255 | -79.34198 | 14114 ft | 323 kts | 29° |
| 2026-04-22 06:59 | -1.69319 | -79.33072 | 13676 ft | 321 kts | 29° |
| 2026-04-22 06:59 | -1.67393 | -79.31955 | 13249 ft | 319 kts | 29° |
| 2026-04-22 07:00 | -1.65359 | -79.31156 | 12819 ft | 314 kts | 6° |
| 2026-04-22 07:00 | -1.63227 | -79.31410 | 12441 ft | 308 kts | 336° |
| 2026-04-22 07:00 | -1.61556 | -79.32642 | 12112 ft | 302 kts | 309° |
| 2026-04-22 07:00 | -1.60414 | -79.34370 | 11787 ft | 297 kts | 292° |
| 2026-04-22 07:01 | -1.60092 | -79.36374 | 11441 ft | 293 kts | 265° |
| 2026-04-22 07:01 | -1.60459 | -79.38365 | 11120 ft | 290 kts | 255° |
| 2026-04-22 07:01 | -1.61006 | -79.40298 | 10800 ft | 288 kts | 254° |
| 2026-04-22 07:01 | -1.61556 | -79.42219 | 10455 ft | 286 kts | 254° |
| 2026-04-22 07:02 | -1.62101 | -79.44124 | 10100 ft | 285 kts | 254° |
| 2026-04-22 07:02 | -1.62649 | -79.46032 | 9681 ft | 286 kts | 254° |
| 2026-04-22 07:02 | -1.63199 | -79.47952 | 9236 ft | 288 kts | 254° |
| 2026-04-22 07:02 | -1.63754 | -79.49881 | 8792 ft | 290 kts | 254° |
| 2026-04-22 07:03 | -1.64317 | -79.51830 | 8366 ft | 291 kts | 254° |
| 2026-04-22 07:03 | -1.64881 | -79.53778 | 7949 ft | 292 kts | 254° |
| 2026-04-22 07:03 | -1.65255 | -79.55071 | 7676 ft | 292 kts | 254° |
| 2026-04-22 07:03 | -1.65823 | -79.57027 | 7260 ft | 293 kts | 254° |
| 2026-04-22 07:04 | -1.66391 | -79.58980 | 6839 ft | 293 kts | 254° |
| 2026-04-22 07:04 | -1.67145 | -79.61572 | 6336 ft | 291 kts | 254° |
| 2026-04-22 07:04 | -1.67525 | -79.62875 | 6127 ft | 288 kts | 254° |
| 2026-04-22 07:04 | -1.68084 | -79.64790 | 5805 ft | 284 kts | 254° |
| 2026-04-22 07:05 | -1.68634 | -79.66671 | 5505 ft | 280 kts | 254° |
| 2026-04-22 07:05 | -1.69425 | -79.68413 | 5189 ft | 276 kts | 230° |
| 2026-04-22 07:05 | -1.70856 | -79.69647 | 4913 ft | 269 kts | 214° |
| 2026-04-22 07:05 | -1.72414 | -79.70619 | 4722 ft | 264 kts | 211° |
| 2026-04-22 07:06 | -1.74013 | -79.71474 | 4534 ft | 257 kts | 202° |
| 2026-04-22 07:06 | -1.75678 | -79.72059 | 4343 ft | 251 kts | 198° |
| 2026-04-22 07:06 | -1.77317 | -79.72607 | 4160 ft | 246 kts | 198° |
| 2026-04-22 07:06 | -1.78938 | -79.73147 | 3953 ft | 243 kts | 198° |
| 2026-04-22 07:07 | -1.80538 | -79.73670 | 3736 ft | 241 kts | 197° |
| 2026-04-22 07:07 | -1.82133 | -79.74178 | 3521 ft | 239 kts | 197° |
| 2026-04-22 07:07 | -1.83708 | -79.74682 | 3321 ft | 236 kts | 197° |
| 2026-04-22 07:07 | -1.85275 | -79.75155 | 3122 ft | 234 kts | 195° |
| 2026-04-22 07:08 | -1.86837 | -79.75595 | 2907 ft | 232 kts | 195° |
| 2026-04-22 07:08 | -1.88385 | -79.76031 | 2717 ft | 229 kts | 195° |
| 2026-04-22 07:08 | -1.89892 | -79.76402 | 2488 ft | 223 kts | 186° |
| 2026-04-22 07:08 | -1.91421 | -79.76412 | 2268 ft | 215 kts | 176° |
| 2026-04-22 07:09 | -1.92841 | -79.76328 | 2006 ft | 195 kts | 176° |
| 2026-04-22 07:09 | -1.94109 | -79.76268 | 1945 ft | 168 kts | 181° |
| 2026-04-22 07:09 | -1.95198 | -79.76465 | 1794 ft | 155 kts | 202° |
| 2026-04-22 07:09 | -1.96111 | -79.76986 | 1661 ft | 144 kts | 212° |
| 2026-04-22 07:10 | -1.96964 | -79.77501 | 1740 ft | 144 kts | 209° |
| 2026-04-22 07:10 | -1.97856 | -79.78003 | 1872 ft | 151 kts | 211° |
| 2026-04-22 07:10 | -1.98753 | -79.78541 | 1997 ft | 149 kts | 210° |
| 2026-04-22 07:10 | -1.99677 | -79.79062 | 2048 ft | 154 kts | 210° |
| 2026-04-22 07:11 | -2.00574 | -79.79592 | 2011 ft | 142 kts | 209° |
| 2026-04-22 07:11 | -2.01468 | -79.80098 | 2020 ft | 154 kts | 211° |
| 2026-04-22 07:11 | -2.02400 | -79.80654 | 2016 ft | 155 kts | 212° |
| 2026-04-22 07:11 | -2.03313 | -79.81173 | 2002 ft | 147 kts | 211° |
| 2026-04-22 07:12 | -2.04176 | -79.81675 | 1994 ft | 148 kts | 211° |
| 2026-04-22 07:12 | -2.05077 | -79.82190 | 1999 ft | 149 kts | 210° |
| 2026-04-22 07:12 | -2.05957 | -79.82711 | 2007 ft | 146 kts | 212° |
| 2026-04-22 07:12 | -2.06870 | -79.83236 | 1852 ft | 156 kts | 211° |
| 2026-04-22 07:13 | -2.07819 | -79.83785 | 1642 ft | 159 kts | 212° |
| 2026-04-22 07:13 | -2.08743 | -79.84317 | 1413 ft | 147 kts | 210° |
| 2026-04-22 07:13 | -2.09599 | -79.84814 | 1213 ft | 137 kts | 212° |
| 2026-04-22 07:13 | -2.10401 | -79.85297 | 991 ft | 135 kts | 213° |
| 2026-04-22 07:14 | -2.11236 | -79.85776 | 870 ft | 137 kts | 211° |
| 2026-04-22 07:14 | -2.12048 | -79.86245 | 677 ft | 134 kts | 212° |
| 2026-04-22 07:14 | -2.12867 | -79.86722 | 524 ft | 139 kts | 210° |
| 2026-04-22 07:14 | -2.13709 | -79.87195 | 337 ft | 138 kts | 211° |
| 2026-04-22 07:15 | -2.14526 | -79.87662 | 116 ft | 133 kts | 210° |
| 2026-04-22 07:15 | -2.15278 | -79.88101 | 26 ft | 104 kts | 209° |
| 2026-04-22 07:15 | -2.15689 | -79.88331 | 23 ft | 40 kts | 211° |
| 2026-04-22 07:15 | -2.15826 | -79.88357 | 24 ft | 18 kts | 150° |
| 2026-04-22 07:16 | -2.15933 | -79.88343 | 26 ft | 14 kts | 234° |
| 2026-04-22 07:16 | -2.15944 | -79.88446 | 25 ft | 13 kts | 266° |
| 2026-04-22 07:16 | -2.16002 | -79.88517 | 26 ft | 14 kts | 227° |
| 2026-04-22 07:16 | -2.15989 | -79.88608 | 27 ft | 15 kts | 315° |
| 2026-04-22 07:17 | -2.15886 | -79.88617 | 26 ft | 17 kts | 20° |
| 2026-04-22 07:17 | -2.15787 | -79.88576 | 27 ft | 11 kts | 4° |
| 2026-04-22 07:17 | -2.15707 | -79.88594 | 26 ft | 12 kts | 347° |